Time;durP1;ratioP1;P1;durP2;ratioP2;P2;SDS_P1;SDS_P2;PMS_P1;PMS_P2;Temp;Humidity;BMP_temperature;BMP_pressure;BME280_temperature;BME280_humidity;BME280_pressure;Samples;Min_cycle;Max_cycle;Signal;HPM_P1;HPM_P2
2022/01/22 00:02:10;;;;;;;14.40;2.95;;;;;;;6.00;88.58;103321.00;5052916;28;20444;-67
2022/01/22 00:04:36;;;;;;;14.15;2.75;;;;;;;5.97;87.74;103316.03;5052639;28;20024;-67
2022/01/22 00:07:04;;;;;;;10.93;2.40;;;;;;;5.96;87.84;103316.97;5052585;28;20031;-68
2022/01/22 00:09:36;;;;;;;19.75;2.78;;;;;;;5.99;88.77;103316.78;5035483;28;20146;-69
2022/01/22 00:12:07;;;;;;;13.55;2.47;;;;;;;5.88;88.57;103314.03;5034382;28;20582;-68
2022/01/22 00:14:34;;;;;;;7.80;2.47;;;;;;;5.93;88.60;103309.47;5033861;28;20094;-67
2022/01/22 00:17:01;;;;;;;11.73;2.42;;;;;;;5.93;88.81;103303.44;5033749;28;20688;-70
2022/01/22 00:19:27;;;;;;;20.00;2.22;;;;;;;6.01;89.16;103303.84;5052261;28;20454;-67
2022/01/22 00:21:53;;;;;;;14.73;2.30;;;;;;;6.05;88.77;103303.56;5033746;28;20028;-67
2022/01/22 00:24:19;;;;;;;9.63;2.55;;;;;;;5.84;89.33;103304.84;5034156;28;20056;-67
2022/01/22 00:26:45;;;;;;;10.63;2.70;;;;;;;5.88;89.42;103308.88;5034575;28;20505;-68
2022/01/22 00:29:11;;;;;;;15.27;2.47;;;;;;;6.00;89.46;103302.19;5052383;28;20468;-68
2022/01/22 00:31:39;;;;;;;12.95;2.15;;;;;;;5.94;89.38;103305.16;5037486;28;20024;-69
2022/01/22 00:34:05;;;;;;;16.33;4.07;;;;;;;6.02;89.06;103306.31;5057426;28;20017;-68
2022/01/22 00:36:30;;;;;;;21.55;2.65;;;;;;;6.03;89.39;103304.56;5056805;28;20033;-68
2022/01/22 00:38:55;;;;;;;13.90;2.30;;;;;;;6.01;89.40;103303.84;5056823;28;20021;-67
2022/01/22 00:41:21;;;;;;;11.80;2.40;;;;;;;6.04;89.24;103301.09;5056711;28;20494;-67
2022/01/22 00:43:47;;;;;;;14.07;3.30;;;;;;;6.05;89.72;103287.34;5056674;28;20043;-68
2022/01/22 00:46:12;;;;;;;14.90;2.90;;;;;;;6.07;89.74;103295.75;5056581;28;20028;-68
2022/01/22 00:48:37;;;;;;;13.82;2.45;;;;;;;5.99;90.31;103301.38;5038667;28;20020;-68
2022/01/22 00:51:03;;;;;;;18.42;2.67;;;;;;;6.05;89.92;103305.31;5056538;28;20051;-67
2022/01/22 00:53:28;;;;;;;17.55;2.85;;;;;;;5.91;90.45;103298.44;5056543;28;20032;-67
2022/01/22 00:55:53;;;;;;;12.73;2.45;;;;;;;6.04;90.70;103301.09;5038604;28;20032;-67
2022/01/22 00:58:19;;;;;;;20.70;2.88;;;;;;;6.11;90.19;103297.22;5056736;28;20025;-67
2022/01/22 01:00:44;;;;;;;17.60;2.75;;;;;;;6.05;90.08;103302.75;5056723;28;20472;-67
2022/01/22 01:03:10;;;;;;;11.52;2.78;;;;;;;6.01;90.10;103304.69;5038375;28;20032;-67
2022/01/22 01:05:36;;;;;;;20.27;3.20;;;;;;;6.03;90.26;103304.56;5056084;28;20021;-67
2022/01/22 01:08:03;;;;;;;9.63;2.28;;;;;;;6.04;90.84;103306.22;5056307;28;20051;-68
2022/01/22 01:10:28;;;;;;;15.77;2.90;;;;;;;5.94;90.82;103313.66;5056613;28;20029;-68
2022/01/22 01:12:53;;;;;;;18.58;2.97;;;;;;;5.94;92.10;103303.41;5038056;28;20459;-68
2022/01/22 01:15:37;;;;;;;10.25;2.63;;;;;;;5.93;91.85;103306.91;5056077;28;20142;-67
2022/01/22 01:34:16;;;;;;;14.02;2.55;;;;;;;6.05;92.23;103324.09;5056339;28;20407;-68
2022/01/22 01:36:44;;;;;;;9.77;2.78;;;;;;;6.00;91.68;103317.59;5055670;28;20025;-68
2022/01/22 01:39:13;;;;;;;23.65;3.10;;;;;;;5.95;92.05;103319.63;5037744;28;20021;-68
2022/01/22 01:44:23;;;;;;;8.88;2.78;;;;;;;6.00;92.14;103317.59;5055860;28;20032;-68
2022/01/22 01:46:52;;;;;;;13.55;3.05;;;;;;;6.02;92.75;103313.22;5037678;28;20025;-68
2022/01/22 01:49:17;;;;;;;12.38;2.70;;;;;;;6.00;92.32;103307.34;5055465;28;20029;-68
2022/01/22 01:51:43;;;;;;;13.20;2.65;;;;;;;5.99;92.87;103311.66;5055367;28;20021;-68
2022/01/22 01:59:21;;;;;;;17.42;3.47;;;;;;;5.93;92.92;103318.84;5055598;28;20102;-68
2022/01/22 02:01:46;;;;;;;19.23;3.30;;;;;;;5.99;92.80;103323.66;5037306;28;20029;-68
2022/01/22 02:04:13;;;;;;;18.67;3.60;;;;;;;5.98;92.94;103316.88;5054735;28;20033;-68
2022/01/22 02:06:39;;;;;;;13.20;3.47;;;;;;;5.88;93.59;103317.41;5054179;28;20029;-68
2022/01/22 02:09:09;;;;;;;21.50;3.90;;;;;;;5.85;93.66;103312.47;5055012;28;20115;-68
2022/01/22 02:11:40;;;;;;;14.48;3.75;;;;;;;5.95;93.59;103322.19;5055103;28;20035;-68
2022/01/22 02:25:04;;;;;;;18.30;3.45;;;;;;;6.01;93.12;103334.63;5055144;28;20486;-68
2022/01/22 02:27:29;;;;;;;16.35;4.13;;;;;;;5.96;93.60;103332.38;5054685;28;20025;-68
2022/01/22 02:29:54;;;;;;;15.32;4.30;;;;;;;5.74;93.67;103298.63;5053871;28;20025;-68
2022/01/22 02:32:56;;;;;;;17.75;3.13;;;;;;;5.92;93.51;103327.47;5054650;28;20055;-68
2022/01/22 02:35:29;;;;;;;17.05;3.40;;;;;;;5.96;93.30;103331.56;5054577;28;20104;-68
2022/01/22 02:38:01;;;;;;;14.90;3.47;;;;;;;5.98;93.79;103322.00;5036776;28;20032;-68
2022/01/22 02:40:31;;;;;;;12.45;2.80;;;;;;;6.03;92.92;103325.13;5036701;28;20024;-68
2022/01/22 02:42:59;;;;;;;12.15;2.70;;;;;;;6.04;93.63;103324.19;5036477;28;20384;-68
2022/01/22 02:45:25;;;;;;;12.43;2.53;;;;;;;5.73;94.07;103285.00;5054309;28;20521;-68
2022/01/22 02:47:51;;;;;;;18.42;3.13;;;;;;;5.99;93.13;103314.22;5054409;28;20025;-68
2022/01/22 02:50:18;;;;;;;16.90;2.67;;;;;;;5.99;93.33;103310.84;5036432;28;20021;-68
2022/01/22 02:52:43;;;;;;;8.80;2.65;;;;;;;6.02;93.21;103308.06;5054800;28;20029;-68
2022/01/22 02:55:11;;;;;;;13.73;2.17;;;;;;;5.94;93.83;103307.72;5053886;28;20071;-68
2022/01/22 02:57:37;;;;;;;17.77;3.00;;;;;;;6.05;93.41;103305.31;5054140;28;20028;-68
2022/01/22 03:00:06;;;;;;;11.23;2.50;;;;;;;6.07;92.97;103311.16;5054171;28;20410;-68
2022/01/22 03:02:32;;;;;;;10.73;2.53;;;;;;;6.07;92.88;103312.00;5036264;28;20025;-68
2022/01/22 03:04:57;;;;;;;8.05;2.35;;;;;;;6.03;92.92;103319.97;5036020;28;20051;-68
2022/01/22 03:07:24;;;;;;;9.10;2.20;;;;;;;6.13;92.48;103322.78;5054041;28;20108;-68
2022/01/22 03:09:51;;;;;;;15.10;1.88;;;;;;;6.08;92.76;103320.53;5053979;28;20017;-68
2022/01/22 03:12:44;;;;;;;9.80;2.10;;;;;;;6.10;92.34;103319.50;5035753;28;20025;-68
2022/01/22 03:18:02;;;;;;;10.38;2.45;;;;;;;6.15;92.68;103321.78;5054354;28;20075;-68
2022/01/22 03:28:40;;;;;;;11.43;2.70;;;;;;;6.13;92.72;103326.19;5054102;28;20506;-67
2022/01/22 03:31:05;;;;;;;13.68;2.65;;;;;;;6.06;93.14;103320.59;5053552;28;20100;-67
2022/01/22 03:33:30;;;;;;;13.60;2.80;;;;;;;6.07;93.66;103318.84;5053742;28;20048;-68
2022/01/22 03:35:57;;;;;;;15.45;2.72;;;;;;;6.06;93.45;103328.31;5053462;28;20024;-69
2022/01/22 03:38:23;;;;;;;12.95;2.50;;;;;;;6.09;93.57;103332.44;5035506;28;20090;-68
2022/01/22 03:40:50;;;;;;;15.02;2.78;;;;;;;6.04;93.67;103335.31;5053378;28;20104;-67
2022/01/22 03:43:16;;;;;;;11.77;2.90;;;;;;;6.04;93.00;103335.31;5035685;28;20437;-67
2022/01/22 03:45:42;;;;;;;14.65;2.40;;;;;;;6.09;93.96;103333.25;5053212;28;20025;-68
2022/01/22 03:48:07;;;;;;;15.90;2.70;;;;;;;6.08;93.21;103329.03;5035327;28;20033;-68
2022/01/22 03:50:32;;;;;;;12.07;2.83;;;;;;;6.12;93.52;103326.28;5035291;28;20029;-67
2022/01/22 03:52:58;;;;;;;17.25;3.08;;;;;;;6.10;93.34;103334.91;5053255;28;20028;-68
2022/01/22 03:55:55;;;;;;;11.27;2.72;;;;;;;5.97;93.20;103292.94;5053167;28;20059;-68
2022/01/22 03:58:09;;;;;;;20.08;3.80;;;;;;;6.12;93.27;103327.09;5052695;28;20094;-67
2022/01/22 04:00:34;;;;;;;11.13;2.97;;;;;;;6.13;93.50;103330.50;5035252;28;20021;-67
2022/01/22 04:05:28;;;;;;;10.43;2.60;;;;;;;6.07;93.63;103329.13;5053601;28;20392;-67
2022/01/22 04:10:31;;;;;;;16.05;3.03;;;;;;;6.04;93.80;103319.06;5057626;28;20376;-68
2022/01/22 04:13:04;;;;;;;17.50;3.03;;;;;;;6.13;93.66;103331.34;5056929;28;20049;-68
2022/01/22 04:15:32;;;;;;;14.20;2.80;;;;;;;6.08;93.96;103329.03;5039913;28;20029;-67
2022/01/22 04:26:27;;;;;;;9.43;2.63;;;;;;;5.97;94.67;103330.63;5056984;28;20510;-68
2022/01/22 04:28:52;;;;;;;13.15;2.63;;;;;;;6.00;95.12;103330.44;5057013;28;20021;-68
2022/01/22 04:31:17;;;;;;;14.13;2.90;;;;;;;6.02;95.49;103333.75;5056827;28;20430;-68
2022/01/22 04:33:43;;;;;;;11.63;2.88;;;;;;;5.98;95.07;103329.69;5057221;28;20111;-68
2022/01/22 04:36:09;;;;;;;10.65;2.60;;;;;;;6.08;94.92;103330.78;5056968;28;20025;-68
2022/01/22 04:38:34;;;;;;;12.93;3.50;;;;;;;6.08;94.83;103325.66;5056656;28;20021;-68
2022/01/22 04:41:00;;;;;;;13.82;2.80;;;;;;;6.15;94.96;103324.34;5056637;28;20029;-68
2022/01/22 04:43:27;;;;;;;13.18;2.75;;;;;;;6.03;94.81;103327.69;5038603;28;20103;-68
2022/01/22 04:48:41;;;;;;;14.65;3.40;;;;;;;5.96;95.50;103322.09;5056788;28;20458;-68
2022/01/22 04:56:34;;;;;;;13.60;3.00;;;;;;;5.97;95.46;103322.94;5057199;28;20047;-68
2022/01/22 04:59:01;;;;;;;9.05;2.53;;;;;;;6.05;95.50;103338.69;5038319;28;20020;-68
2022/01/22 05:01:27;;;;;;;17.92;2.80;;;;;;;6.03;94.93;103332.81;5056214;28;20129;-68
2022/01/22 05:03:52;;;;;;;10.90;2.67;;;;;;;6.05;95.61;103325.84;5038260;28;20511;-68
2022/01/22 05:06:17;;;;;;;11.20;3.00;;;;;;;6.08;95.31;103326.47;5038072;28;20059;-68
2022/01/22 05:08:43;;;;;;;15.50;3.05;;;;;;;6.09;95.58;103322.16;5056225;28;20052;-68
2022/01/22 05:11:08;;;;;;;12.57;2.88;;;;;;;6.12;95.17;103321.97;5038176;28;20052;-68
2022/01/22 05:13:34;;;;;;;7.38;2.72;;;;;;;6.17;95.04;103325.09;5055709;28;20060;-68
2022/01/22 05:15:59;;;;;;;10.45;3.10;;;;;;;6.22;95.10;103324.81;5056112;28;20075;-68
2022/01/22 05:18:24;;;;;;;17.50;2.63;;;;;;;6.19;94.82;103318.13;5037579;28;20032;-68
2022/01/22 05:20:58;;;;;;;21.02;2.85;;;;;;;6.17;95.16;103324.25;5055831;28;20154;-69
2022/01/22 05:23:25;;;;;;;19.73;3.20;;;;;;;6.17;95.18;103326.84;5055712;28;20025;-68
2022/01/22 05:25:58;;;;;;;9.73;2.20;;;;;;;6.14;95.23;103316.75;5037751;28;20017;-68
2022/01/22 05:29:03;;;;;;;16.27;2.60;;;;;;;6.08;94.75;103313.66;5038238;28;20036;-68
2022/01/22 05:31:41;;;;;;;15.20;2.53;;;;;;;6.10;95.58;103316.94;5055380;28;20025;-68
2022/01/22 05:39:24;;;;;;;12.98;2.00;;;;;;;6.22;94.89;103319.66;5055749;28;20068;-68
2022/01/22 05:41:51;;;;;;;13.57;2.00;;;;;;;6.28;94.35;103325.25;5055522;28;20045;-68
2022/01/22 05:44:17;;;;;;;9.15;1.90;;;;;;;6.39;93.97;103329.72;5037717;28;20060;-68
2022/01/22 05:46:42;;;;;;;15.30;2.10;;;;;;;6.31;94.07;103327.63;5055409;28;20464;-68
2022/01/22 05:49:07;;;;;;;16.38;2.20;;;;;;;6.38;93.49;103324.66;5055375;28;20020;-69
2022/01/22 05:51:34;;;;;;;11.63;2.28;;;;;;;6.41;93.78;103332.97;5055234;28;20423;-66
2022/01/22 05:59:37;;;;;;;9.63;2.20;;;;;;;6.42;93.07;103339.78;5055422;28;20506;-68
2022/01/22 06:02:08;;;;;;;11.35;1.85;;;;;;;6.37;93.21;103346.13;5055166;28;20029;-66
2022/01/22 06:04:34;;;;;;;10.75;1.75;;;;;;;6.44;93.70;103342.25;5054828;28;20032;-68
2022/01/22 06:07:01;;;;;;;11.25;2.60;;;;;;;6.41;93.45;103342.44;5055099;28;20029;-69
2022/01/22 06:09:26;;;;;;;7.25;1.73;;;;;;;6.45;94.13;103344.72;5055098;28;20029;-68
2022/01/22 06:14:18;;;;;;;13.18;2.47;;;;;;;6.42;93.38;103344.09;5055088;28;20040;-68
2022/01/22 06:16:44;;;;;;;12.38;2.10;;;;;;;6.43;93.69;103341.41;5054842;28;20024;-67
2022/01/22 06:19:09;;;;;;;12.90;2.00;;;;;;;6.47;93.32;103344.63;5054841;28;20464;-68
2022/01/22 06:21:35;;;;;;;13.98;2.15;;;;;;;6.29;92.98;103323.50;5054958;28;20021;-67
2022/01/22 06:24:00;;;;;;;9.70;1.98;;;;;;;6.45;92.89;103342.16;5054776;28;20025;-68
2022/01/22 06:26:26;;;;;;;13.93;1.88;;;;;;;6.35;92.50;103341.06;5054807;28;20025;-68
2022/01/22 06:28:51;;;;;;;9.32;1.80;;;;;;;6.37;92.09;103349.53;5054032;28;20029;-68
2022/01/22 06:31:16;;;;;;;8.07;1.60;;;;;;;6.43;92.09;103356.84;5054768;28;20489;-68
2022/01/22 06:33:41;;;;;;;13.43;2.08;;;;;;;6.46;92.21;103360.97;5054790;28;20138;-69
2022/01/22 06:36:07;;;;;;;8.30;2.47;;;;;;;6.49;91.97;103365.91;5054943;28;20115;-69
2022/01/22 06:38:33;;;;;;;14.13;2.55;;;;;;;6.43;91.40;103366.28;5054600;28;20029;-68
2022/01/22 06:43:42;;;;;;;9.95;1.70;;;;;;;6.49;91.29;103371.03;5057553;28;20052;-72
2022/01/22 06:46:07;;;;;;;9.80;2.10;;;;;;;6.50;91.14;103362.41;5057157;28;20020;-70
2022/01/22 06:48:32;;;;;;;18.67;2.53;;;;;;;6.48;91.21;103366.84;5057402;28;20028;-70
2022/01/22 06:50:59;;;;;;;11.50;2.13;;;;;;;6.52;90.45;103375.97;5057125;28;20032;-70
2022/01/22 06:53:24;;;;;;;7.45;1.70;;;;;;;6.51;90.55;103376.91;5039177;28;20028;-72
2022/01/22 06:56:01;;;;;;;9.18;2.28;;;;;;;6.46;90.25;103381.50;5056940;28;20017;-72
2022/01/22 06:58:27;;;;;;;10.93;2.50;;;;;;;6.51;90.52;103380.31;5056852;28;20434;-70
2022/01/22 07:00:52;;;;;;;13.55;2.53;;;;;;;6.45;90.09;103372.97;5056137;28;20048;-70
2022/01/22 07:03:18;;;;;;;9.73;2.00;;;;;;;6.49;90.34;103374.44;5036971;28;20025;-69
2022/01/22 07:05:43;;;;;;;13.85;1.80;;;;;;;6.53;90.03;103377.63;5054122;28;20352;-69
2022/01/22 07:08:09;;;;;;;15.30;1.95;;;;;;;6.60;89.57;103383.22;5053386;28;20020;-69
2022/01/22 07:10:34;;;;;;;11.23;3.33;;;;;;;6.55;89.26;103381.75;5053404;28;20021;-68
2022/01/22 07:13:00;;;;;;;8.65;2.30;;;;;;;6.56;89.61;103374.88;5053104;28;20040;-69
2022/01/22 07:15:25;;;;;;;11.68;2.47;;;;;;;6.47;90.16;103385.72;5035182;28;20020;-68
2022/01/22 07:17:51;;;;;;;9.13;1.77;;;;;;;6.49;88.85;103387.28;5052931;28;20025;-68
2022/01/22 07:20:24;;;;;;;8.10;1.45;;;;;;;6.52;88.97;103383.69;5053171;28;20031;-68
2022/01/22 07:22:52;;;;;;;8.35;1.60;;;;;;;6.56;88.92;103387.72;5054052;28;20017;-68
2022/01/22 07:25:18;;;;;;;7.97;1.67;;;;;;;6.53;88.46;103386.19;5054215;28;20087;-68
2022/01/22 07:27:44;;;;;;;7.78;1.35;;;;;;;6.53;88.48;103386.19;5054213;28;20452;-69
2022/01/22 07:30:11;;;;;;;11.48;1.80;;;;;;;6.53;88.48;103375.91;5053201;28;20035;-68
2022/01/22 07:32:41;;;;;;;13.20;1.85;;;;;;;6.54;88.57;103376.72;5053513;28;20102;-69
2022/01/22 07:35:06;;;;;;;13.82;1.90;;;;;;;6.58;88.90;103380.72;5053949;28;20021;-69
2022/01/22 07:37:32;;;;;;;12.48;1.90;;;;;;;6.58;88.95;103370.44;5053347;28;20472;-68
2022/01/22 07:39:58;;;;;;;14.45;2.28;;;;;;;6.54;88.61;103353.59;5053427;28;20025;-68
2022/01/22 07:42:23;;;;;;;8.13;1.75;;;;;;;6.63;88.74;103373.56;5053431;28;20444;-68
2022/01/22 07:44:48;;;;;;;16.02;1.90;;;;;;;6.53;88.92;103362.22;5053390;28;20116;-68
2022/01/22 07:47:13;;;;;;;10.25;1.80;;;;;;;6.53;88.89;103367.34;5054314;28;20025;-68
2022/01/22 07:49:39;;;;;;;5.25;1.73;;;;;;;6.45;88.56;103360.13;5054142;28;20024;-66
2022/01/22 07:52:05;;;;;;;6.85;1.75;;;;;;;6.54;88.60;103358.72;5052820;28;20017;-68
2022/01/22 07:54:32;;;;;;;10.98;2.10;;;;;;;6.45;88.65;103367.03;5053174;28;20051;-68
2022/01/22 07:56:59;;;;;;;7.03;1.67;;;;;;;6.37;89.66;103353.84;5053263;28;20063;-67
2022/01/22 07:59:24;;;;;;;10.90;2.08;;;;;;;6.45;89.56;103359.31;5053236;28;20074;-68
2022/01/22 08:01:49;;;;;;;7.20;2.28;;;;;;;6.62;88.83;103360.78;5036140;28;20025;-68
2022/01/22 08:04:18;;;;;;;9.85;2.15;;;;;;;6.67;88.30;103362.16;5053375;28;20402;-68
2022/01/22 08:06:43;;;;;;;7.80;1.98;;;;;;;6.63;88.38;103363.28;5035182;28;20077;-69
2022/01/22 08:09:08;;;;;;;16.80;3.08;;;;;;;6.57;89.01;103355.97;5053262;28;20419;-68
2022/01/22 08:11:33;;;;;;;11.43;2.92;;;;;;;6.63;89.02;103362.47;5035359;28;20041;-68
2022/01/22 08:13:59;;;;;;;13.85;2.78;;;;;;;6.63;88.14;103367.59;5052983;28;20077;-68
2022/01/22 08:16:25;;;;;;;19.50;3.33;;;;;;;6.64;88.86;103369.25;5053373;28;20025;-69
2022/01/22 08:18:50;;;;;;;12.88;2.58;;;;;;;6.71;88.79;103370.50;5053089;28;20016;-69
2022/01/22 08:21:15;;;;;;;19.73;2.88;;;;;;;6.62;88.49;103361.66;5053038;28;20024;-68
2022/01/22 08:23:41;;;;;;;9.80;2.65;;;;;;;6.60;89.28;103365.22;5053070;28;20025;-69
2022/01/22 08:26:09;;;;;;;11.25;3.60;;;;;;;6.77;88.65;103364.97;5034894;28;20051;-69
2022/01/22 08:28:53;;;;;;;16.67;2.80;;;;;;;6.90;87.86;103370.13;5052907;28;20112;-68
2022/01/22 08:31:49;;;;;;;10.73;3.40;;;;;;;6.73;88.01;103381.50;5053331;28;20021;-67
2022/01/22 08:36:50;;;;;;;8.57;2.63;;;;;;;6.70;87.54;103385.13;5053532;28;20052;-68
2022/01/22 08:39:17;;;;;;;10.38;2.38;;;;;;;6.75;87.98;103383.06;5035355;28;20480;-68
2022/01/22 08:41:43;;;;;;;19.45;2.83;;;;;;;6.81;87.77;103391.31;5052956;28;20470;-69
2022/01/22 08:44:10;;;;;;;13.05;2.67;;;;;;;6.87;88.19;103383.19;5052849;28;20032;-67
2022/01/22 08:46:36;;;;;;;12.35;2.83;;;;;;;6.85;87.37;103388.44;5052645;28;20410;-68
2022/01/22 08:49:04;;;;;;;12.23;2.92;;;;;;;6.80;88.16;103384.53;5053056;28;20464;-70
2022/01/22 08:51:30;;;;;;;12.88;2.72;;;;;;;6.74;88.67;103393.44;5052935;28;20360;-68
2022/01/22 08:53:55;;;;;;;10.85;2.40;;;;;;;6.77;88.32;103395.81;5055521;28;20104;-68
2022/01/22 08:56:21;;;;;;;11.50;3.22;;;;;;;6.76;87.71;103392.44;5055453;28;20107;-72
2022/01/22 08:58:47;;;;;;;11.98;2.40;;;;;;;6.77;87.90;103401.78;5055295;28;20021;-69
2022/01/22 09:01:13;;;;;;;9.25;2.30;;;;;;;6.88;87.83;103400.28;5055084;28;20031;-68
2022/01/22 09:03:38;;;;;;;8.68;2.35;;;;;;;6.97;88.62;103394.53;5055895;28;20021;-68
2022/01/22 09:06:05;;;;;;;12.50;2.60;;;;;;;6.79;88.35;103406.84;5038169;28;20069;-69
2022/01/22 09:08:30;;;;;;;14.98;2.35;;;;;;;6.83;87.91;103403.13;5056520;28;20025;-71
2022/01/22 09:10:56;;;;;;;8.68;1.75;;;;;;;6.91;87.19;103392.38;5056740;28;20363;-68
2022/01/22 09:13:23;;;;;;;9.40;1.90;;;;;;;6.79;87.98;103411.97;5055973;28;20131;-69
2022/01/22 09:15:51;;;;;;;10.77;2.25;;;;;;;6.78;87.93;103423.16;5037131;28;20021;-68
2022/01/22 09:18:16;;;;;;;13.95;2.10;;;;;;;6.72;87.52;103421.78;5055036;28;20115;-69
2022/01/22 09:23:09;;;;;;;10.13;2.28;;;;;;;6.65;87.79;103397.44;5054929;28;20111;-68
2022/01/22 09:25:35;;;;;;;11.82;2.55;;;;;;;6.84;87.13;103417.63;5036933;28;20021;-68
2022/01/22 09:28:01;;;;;;;10.77;2.30;;;;;;;6.76;87.14;103420.69;5054605;28;20387;-68
2022/01/22 09:30:26;;;;;;;9.80;2.35;;;;;;;6.78;87.26;103423.97;5054823;28;20024;-68
2022/01/22 09:32:52;;;;;;;10.10;2.75;;;;;;;6.83;87.46;103430.59;5035436;28;20384;-67
2022/01/22 09:35:18;;;;;;;9.40;2.30;;;;;;;6.74;87.12;103432.81;5053400;28;20029;-68
2022/01/22 09:37:44;;;;;;;9.45;2.55;;;;;;;6.77;88.34;103434.38;5053422;28;20045;-68
2022/01/22 09:40:12;;;;;;;8.10;2.40;;;;;;;6.89;87.52;103427.63;5053668;28;20033;-67
2022/01/22 09:42:39;;;;;;;8.02;2.42;;;;;;;6.89;87.43;103436.16;5053425;28;20036;-69
2022/01/22 09:45:04;;;;;;;9.55;2.70;;;;;;;6.96;87.09;103439.16;5053941;28;20460;-68
2022/01/22 09:47:30;;;;;;;10.73;2.80;;;;;;;6.82;87.28;103442.63;5055325;28;20036;-69
2022/01/22 09:49:56;;;;;;;6.00;2.30;;;;;;;6.92;86.97;103455.72;5055459;28;20034;-68
2022/01/22 09:52:22;;;;;;;13.57;4.05;;;;;;;6.99;87.12;103465.50;5055192;28;20115;-69
2022/01/22 09:54:48;;;;;;;8.43;2.65;;;;;;;7.01;87.21;103471.34;5055244;28;20028;-69
2022/01/22 09:57:14;;;;;;;9.20;2.90;;;;;;;7.01;86.50;103466.22;5055549;28;20448;-68
2022/01/22 09:59:39;;;;;;;12.93;3.40;;;;;;;7.13;86.93;103468.94;5037178;28;20043;-71
2022/01/22 10:02:17;;;;;;;7.75;2.50;;;;;;;7.14;86.01;103466.28;5055392;28;20125;-69
2022/01/22 10:04:45;;;;;;;10.43;2.88;;;;;;;7.12;85.83;103467.28;5035981;28;20032;-68
2022/01/22 10:07:21;;;;;;;5.13;2.50;;;;;;;7.06;86.46;103463.38;5054973;28;20476;-69
2022/01/22 10:10:05;;;;;;;7.75;2.72;;;;;;;7.19;86.51;103469.38;5055123;28;20491;-69
2022/01/22 10:12:42;;;;;;;9.20;2.58;;;;;;;7.06;86.74;103465.13;5055058;28;20041;-68
2022/01/22 10:15:17;;;;;;;7.68;2.30;;;;;;;7.17;86.04;103458.38;5055458;28;20025;-70
2022/01/22 10:17:50;;;;;;;13.50;2.45;;;;;;;7.09;86.50;103467.50;5036905;28;20032;-69
2022/01/22 10:20:24;;;;;;;;;;;;;;;7.12;86.20;103468.13;5037261;28;20055;-68
2022/01/22 10:23:10;;;;;;;9.48;3.80;;;;;;;7.22;85.59;103461.47;5036794;28;19908;-68
2022/01/22 10:25:44;;;;;;;14.10;4.43;;;;;;;7.26;84.85;103456.13;5055060;28;20032;-70
2022/01/22 10:28:17;;;;;;;9.57;3.72;;;;;;;7.39;85.19;103451.81;5054501;28;20063;-69
2022/01/22 10:30:45;;;;;;;8.02;3.20;;;;;;;7.33;84.94;103457.34;5054539;28;20470;-71
2022/01/22 10:33:22;;;;;;;8.25;3.80;;;;;;;7.37;85.06;103449.34;5036603;28;20051;-70
2022/01/22 10:35:48;;;;;;;13.45;3.80;;;;;;;7.49;84.90;103452.06;5054383;28;20100;-69
2022/01/22 10:38:17;;;;;;;9.32;3.10;;;;;;;7.59;84.67;103448.75;5054295;28;20055;-71
2022/01/22 10:40:43;;;;;;;9.25;2.95;;;;;;;7.60;84.65;103447.84;5054398;28;20383;-69
2022/01/22 10:43:28;;;;;;;4.72;2.40;;;;;;;7.57;84.40;103455.75;5036810;28;20107;-70
2022/01/22 10:46:09;;;;;;;5.70;2.78;;;;;;;7.50;84.33;103448.53;5036842;28;20029;-70
2022/01/22 10:48:38;;;;;;;12.18;4.30;;;;;;;7.54;84.04;103452.53;5054380;28;20422;-69
2022/01/22 10:51:10;;;;;;;12.30;3.70;;;;;;;7.56;83.69;103446.38;5054333;28;20032;-70
2022/01/22 10:53:38;;;;;;;10.88;5.20;;;;;;;7.54;84.21;103450.81;5054872;28;20037;-70
2022/01/22 10:56:06;;;;;;;12.40;3.65;;;;;;;7.54;83.75;103455.97;5054702;28;20045;-69
2022/01/22 10:58:33;;;;;;;7.45;2.45;;;;;;;7.46;83.12;103458.22;5053909;28;20052;-69
2022/01/22 11:01:05;;;;;;;9.77;2.50;;;;;;;7.65;83.39;103455.22;5053984;28;20027;-69
2022/01/22 11:03:32;;;;;;;8.57;2.30;;;;;;;7.77;83.96;103451.88;5036162;28;20029;-68
2022/01/22 11:05:59;;;;;;;6.55;2.53;;;;;;;7.76;83.57;103449.38;5054078;28;20043;-71
2022/01/22 11:08:28;;;;;;;8.38;2.53;;;;;;;7.77;83.94;103454.44;5053956;28;20020;-68
2022/01/22 11:10:54;;;;;;;6.15;2.78;;;;;;;7.67;84.36;103463.69;5036063;28;20028;-69
2022/01/22 11:13:19;;;;;;;6.88;3.05;;;;;;;7.73;84.17;103459.88;5035086;28;20126;-69
2022/01/22 11:15:48;;;;;;;12.23;3.50;;;;;;;7.79;84.49;103464.63;5052669;28;20375;-70
2022/01/22 11:18:13;;;;;;;10.55;3.90;;;;;;;7.84;83.47;103462.56;5034922;28;20409;-70
2022/01/22 11:20:39;;;;;;;11.18;3.60;;;;;;;7.76;83.75;103459.66;5052719;28;20027;-69
2022/01/22 11:23:05;;;;;;;11.38;4.05;;;;;;;7.79;84.22;103456.88;5052715;28;20029;-69
2022/01/22 11:25:33;;;;;;;10.93;4.38;;;;;;;7.83;83.96;103445.47;5054109;28;20056;-69
2022/01/22 11:27:59;;;;;;;12.85;4.30;;;;;;;7.82;84.12;103447.19;5053386;28;20025;-70
2022/01/22 11:30:27;;;;;;;9.77;4.47;;;;;;;7.67;84.67;103425.06;5053560;28;20383;-68
2022/01/22 11:32:57;;;;;;;14.55;5.32;;;;;;;7.66;84.40;103447.44;5035676;28;20028;-71
2022/01/22 11:35:51;;;;;;;13.25;4.82;;;;;;;7.62;85.52;103455.44;5053397;28;20021;-71
2022/01/22 11:38:26;;;;;;;11.23;4.32;;;;;;;7.71;84.84;103454.00;5053614;28;20021;-71
2022/01/22 11:41:15;;;;;;;12.85;4.28;;;;;;;7.68;84.96;103448.16;5054040;28;20024;-71
2022/01/22 11:44:10;;;;;;;9.35;3.85;;;;;;;7.74;84.71;103448.66;5053607;28;20024;-72
2022/01/22 11:46:37;;;;;;;12.85;3.70;;;;;;;7.82;84.08;103446.38;5035751;28;20506;-71
2022/01/22 11:49:13;;;;;;;12.27;4.10;;;;;;;7.72;84.46;103446.19;5035692;28;20116;-72
2022/01/22 11:51:39;;;;;;;13.18;4.00;;;;;;;7.79;84.22;103431.97;5053019;28;20025;-70
2022/01/22 11:54:04;;;;;;;14.70;4.18;;;;;;;7.89;85.02;103443.31;5036033;28;20028;-73
2022/01/22 11:56:44;;;;;;;7.28;3.60;;;;;;;7.87;83.89;103432.28;5053517;28;20021;-71
2022/01/22 11:59:25;;;;;;;8.38;3.60;;;;;;;7.80;85.07;103440.53;5052773;28;20024;-70
2022/01/22 12:01:53;;;;;;;9.15;3.72;;;;;;;7.77;84.66;103433.84;5053293;28;20021;-71
2022/01/22 12:04:37;;;;;;;13.77;3.63;;;;;;;7.76;85.67;103439.91;5034222;28;20108;-68
2022/01/22 12:07:02;;;;;;;11.32;3.78;;;;;;;7.83;84.25;103432.59;5052295;28;20499;-70
2022/01/22 12:09:31;;;;;;;10.32;3.35;;;;;;;7.78;84.84;103430.31;5052143;28;20024;-71
2022/01/22 12:14:48;;;;;;;10.88;3.47;;;;;;;7.85;85.10;103434.16;5052091;28;20072;-70
2022/01/22 12:17:23;;;;;;;13.80;3.37;;;;;;;8.07;84.59;103430.91;5052120;28;20079;-70
2022/01/22 12:20:06;;;;;;;7.70;3.13;;;;;;;7.94;84.07;103429.28;5034334;28;20279;-69
2022/01/22 12:22:34;;;;;;;9.75;3.20;;;;;;;8.11;83.59;103426.38;5052031;28;20378;-69
2022/01/22 12:25:14;;;;;;;18.33;5.43;;;;;;;8.16;83.30;103434.59;5051623;28;20072;-69
2022/01/22 12:27:50;;;;;;;13.00;3.90;;;;;;;8.07;83.18;103432.69;5054483;28;20079;-70
2022/01/22 12:30:38;;;;;;;10.73;2.90;;;;;;;7.87;83.87;103444.34;5039666;28;20029;-71
2022/01/22 12:33:09;;;;;;;9.23;3.20;;;;;;;7.88;84.94;103445.97;5056722;28;20079;-71
2022/01/22 12:35:40;;;;;;;10.50;3.45;;;;;;;7.88;84.81;103438.25;5038942;28;20021;-71
2022/01/22 12:38:21;;;;;;;11.85;3.17;;;;;;;7.91;83.40;103438.03;5056964;28;20029;-71
2022/01/22 12:40:51;;;;;;;12.73;3.40;;;;;;;7.86;84.42;103440.94;5056612;28;20021;-70
2022/01/22 12:43:26;;;;;;;9.95;3.60;;;;;;;7.82;84.89;103429.19;5038845;28;20017;-70
2022/01/22 12:45:57;;;;;;;8.68;3.20;;;;;;;7.88;84.93;103435.66;5038428;28;20052;-69
2022/01/22 12:48:30;;;;;;;7.93;3.53;;;;;;;7.82;84.81;103436.09;5039289;28;20056;-69
2022/01/22 12:51:08;;;;;;;9.80;3.53;;;;;;;7.91;84.73;103431.16;5056484;28;20095;-71
2022/01/22 12:53:35;;;;;;;10.68;3.55;;;;;;;7.97;84.48;103429.06;5056746;28;20029;-70
2022/01/22 12:56:24;;;;;;;8.60;3.97;;;;;;;8.01;84.52;103431.34;5056430;28;20375;-70
2022/01/22 12:58:47;;;;;;;9.77;3.70;;;;;;;8.03;84.41;103434.66;5056178;28;20033;-71
2022/01/22 13:01:20;;;;;;;11.07;3.75;;;;;;;7.96;85.55;103438.56;5056347;28;20021;-71
2022/01/22 13:03:52;;;;;;;10.45;3.92;;;;;;;7.92;85.51;103450.00;5038679;28;20033;-70
2022/01/22 13:06:21;;;;;;;9.45;4.38;;;;;;;7.87;85.31;103452.06;5038323;28;20053;-70
2022/01/22 13:08:46;;;;;;;12.55;5.10;;;;;;;7.81;85.90;103449.91;5038580;28;20471;-69